Latest Weather Observations for Nuriootpa

IDS60801

Issued at 10:32 pm CDT Sunday 25 January 2015 (issued every 30 minutes, with the page automatically refreshed every 10 minutes)

About weather observations | Map of weather stations | Latest weather observations for SA | Other Formats
Station Details ID: 023373 Name: NURIOOTPA VITICULTURAL Lat: -34.48 Lon: 139.01 Height: 275.0 m
Data from the previous 72 hours. | See also: Recent months at Nuriootpa
Date/Time
CDT
Temp
°C
App
Temp
°C
Dew
Point
Rel
Hum
%
Delta-T
°C
Wind Press
QNH
hPa
Press
MSL
hPa
Rain
since 9 am
mm
Dir
 
Spd
km/h
Gust
km/h
Spd
kts
Gust
kts
25/10:30pm 13.5 10.6 4.8 55 4.1 SSW 9 11 5 6 1016.6 1015.5 0.0
25/10:00pm 14.1 10.4 4.2 51 4.6 S 13 20 7 11 1016.3 1015.1 0.0
25/09:30pm 14.3 11.4 4.8 53 4.5 S 9 13 5 7 1015.7 1014.5 0.0
25/09:00pm 14.9 11.4 5.3 52 4.6 S 13 19 7 10 1015.2 1014.0 0.0
25/08:30pm 16.2 12.3 5.2 48 5.3 SSW 15 24 8 13 1014.9 1013.7 0.0
25/08:00pm 17.3 12.3 4.4 42 6.2 SW 20 35 11 19 1014.5 1013.3 0.0
25/07:30pm 18.3 13.3 4.4 39 6.7 WSW 20 33 11 18 1014.0 1012.9 0.0
25/07:00pm 19.1 14.0 4.2 37 7.2 SW 20 28 11 15 1013.9 1012.8 0.0
25/06:30pm 19.1 13.1 5.1 39 6.9 WSW 26 37 14 20 1013.6 1012.5 0.0
25/06:00pm 20.8 15.6 3.4 31 8.4 WSW 20 28 11 15 1013.5 1012.4 0.0
25/05:30pm 20.6 14.6 3.4 32 8.3 SW 24 35 13 19 1013.3 1012.2 0.0
25/05:00pm 20.5 14.4 2.6 30 8.5 SW 24 37 13 20 1013.2 1012.0 0.0
25/04:30pm 21.3 16.2 3.0 30 8.8 SW 19 33 10 18 1013.4 1012.3 0.0
25/04:00pm 20.3 14.2 2.5 30 8.4 WSW 24 37 13 20 1013.7 1012.6 0.0
25/03:30pm 19.9 13.6 3.7 34 7.8 WSW 26 46 14 25 1013.6 1012.5 0.0
25/03:00pm 20.3 13.2 1.5 28 8.7 SW 28 39 15 21 1013.7 1012.6 0.0
25/02:30pm 20.1 13.6 2.5 31 8.3 SW 26 41 14 22 1013.8 1012.7 0.0
25/02:00pm 19.4 13.4 3.2 34 7.7 SW 24 37 13 20 1013.9 1012.8 0.0
25/01:30pm 18.9 13.3 3.6 36 7.3 WSW 22 39 12 21 1014.1 1013.0 0.0
25/01:00pm 19.2 13.3 4.1 37 7.3 WSW 24 41 13 22 1014.1 1013.0 0.0
25/12:33pm 19.6 13.5 4.7 37 7.3 SW 26 46 14 25 1013.9 1012.8 0.0
25/12:30pm 19.7 13.7 5.2 38 7.2 WSW 26 39 14 21 1013.8 1012.7 0.0
25/12:00pm 18.7 12.8 3.9 37 7.1 SW 24 35 13 19 1013.9 1012.8 0.0
25/11:30am 19.1 13.7 4.5 38 7.1 SW 22 35 12 19 1014.0 1012.9 0.0
25/11:00am 17.7 12.1 5.2 43 6.1 WSW 24 35 13 19 1013.9 1012.8 0.0
25/10:30am 16.2 10.7 4.2 45 5.7 WSW 22 35 12 19 1013.9 1012.8 0.0
25/10:00am 16.1 11.3 5.6 49 5.1 SW 20 33 11 18 1013.7 1012.6 0.0
25/09:30am 16.9 12.0 5.2 46 5.7 SW 20 28 11 15 1013.5 1012.4 0.0
25/09:00am 16.0 10.5 4.2 45 5.6 WSW 22 35 12 19 1013.2 1012.0 0.0
25/08:30am 15.1 10.8 5.3 52 4.7 SW 17 24 9 13 1013.1 1011.9 0.0
25/08:00am 14.1 9.4 6.1 58 3.9 SW 20 28 11 15 1012.5 1011.3 0.0
25/07:30am 13.3 9.4 7.2 66 3.0 SW 17 24 9 13 1012.0 1010.8 0.0
25/07:00am 12.1 8.7 7.7 74 2.2 SW 15 22 8 12 1011.7 1010.5 0.0
25/06:30am 10.9 8.7 7.9 82 1.5 SW 9 13 5 7 1011.3 1010.1 0.0
25/06:00am 11.4 9.2 7.8 78 1.8 SW 9 11 5 6 1010.9 1009.7 0.0
25/05:30am 12.9 10.3 7.7 70 2.6 W 11 15 6 8 1010.7 1009.5 0.0
25/05:00am 13.1 10.1 7.7 70 2.7 WSW 13 19 7 10 1010.5 1009.3 0.0
25/04:30am 13.3 10.7 7.9 70 2.7 WSW 11 15 6 8 1010.3 1009.2 0.0
25/04:00am 13.8 10.4 7.8 67 3.0 SW 15 22 8 12 1010.1 1009.0 0.0
25/03:30am 14.1 11.1 9.1 72 2.6 SW 15 22 8 12 1010.0 1008.8 0.0
25/03:00am 14.7 10.8 9.5 71 2.7 SW 20 30 11 16 1010.1 1009.0 0.0
25/02:30am 15.2 11.6 9.9 70 2.8 SW 19 28 10 15 1010.1 1009.0 0.0
25/02:00am 15.4 11.2 9.7 69 3.0 SW 22 33 12 18 1010.1 1009.0 0.0
25/01:30am 15.6 11.1 11.4 76 2.3 SW 26 37 14 20 1009.9 1008.7 0.0
25/01:00am 16.1 12.6 12.3 78 2.1 WSW 22 39 12 21 1009.9 1008.7 0.0
25/12:30am 16.1 13.3 13.1 82 1.7 WSW 20 28 11 15 1009.8 1008.6 0.0
25/12:00am 16.4 12.5 12.1 76 2.4 WSW 24 39 13 21 1010.0 1008.8 0.0
 
Date/Time
CDT
Temp
°C
App
Temp
°C
Dew
Point
Rel
Hum
%
Delta-T
°C
Wind Press
QNH
hPa
Press
MSL
hPa
Rain
since 9 am
mm
Dir
 
Spd
km/h
Gust
km/h
Spd
kts
Gust
kts
24/11:30pm 16.7 12.9 12.4 76 2.4 WSW 24 37 13 20 1009.9 1008.7 0.0
24/11:00pm 16.7 12.7 13.0 79 2.1 WSW 26 43 14 23 1009.8 1008.6 0.0
24/10:31pm 18.1 13.3 11.8 66 3.5 WSW 28 46 15 25 1009.6 1008.4 0.0
24/10:30pm 18.2 13.0 11.5 65 3.7 WSW 30 46 16 25 1009.6 1008.4 0.0
24/10:25pm 18.4 13.3 10.7 61 4.2 WSW 28 46 15 25 1009.5 1008.3 0.0
24/10:00pm 18.7 15.2 10.9 60 4.3 WSW 20 35 11 19 1009.2 1008.0 0.0
24/09:30pm 18.2 15.7 12.3 68 3.3 WSW 17 24 9 13 1008.8 1007.6 0.0
24/09:00pm 18.6 15.3 11.6 63 3.9 WSW 20 30 11 16 1008.6 1007.4 0.0
24/08:30pm 19.1 15.2 10.9 59 4.5 WSW 22 32 12 17 1008.4 1007.2 0.0
24/08:00pm 20.0 14.7 9.7 51 5.6 WSW 28 39 15 21 1008.1 1006.9 0.0
24/07:30pm 21.0 16.4 9.8 48 6.1 WSW 24 37 13 20 1007.8 1006.6 0.0
24/07:00pm 21.4 16.4 9.5 46 6.5 WSW 26 43 14 23 1007.6 1006.4 0.0
24/06:30pm 21.8 16.7 9.3 45 6.8 WSW 26 41 14 22 1007.5 1006.3 0.0
24/06:00pm 22.1 17.1 9.7 45 6.8 WSW 26 41 14 22 1007.5 1006.3 0.0
24/05:50pm 21.8 16.4 9.5 45 6.7 WSW 28 46 15 25 1007.4 1006.2 0.0
24/05:30pm 22.4 17.2 10.1 45 6.8 WSW 28 44 15 24 1007.3 1006.1 0.0
24/05:00pm 22.6 16.3 9.0 42 7.4 W 32 48 17 26 1007.2 1006.0 0.0
24/04:31pm 23.3 17.2 8.2 38 8.1 WSW 30 48 16 26 1007.2 1006.0 0.0
24/04:30pm 23.5 17.5 8.5 38 8.1 WSW 30 41 16 22 1007.2 1006.0 0.0
24/04:00pm 23.4 17.4 8.6 38 8.0 WSW 30 43 16 23 1007.3 1006.1 0.0
24/03:39pm 23.8 18.1 8.2 37 8.4 WSW 28 46 15 25 1007.3 1006.1 0.0
24/03:30pm 23.4 17.6 7.9 37 8.3 WSW 28 41 15 22 1007.3 1006.1 0.0
24/03:20pm 23.2 16.6 7.6 36 8.3 WSW 32 52 17 28 1007.3 1006.1 0.0
24/03:00pm 23.5 17.3 7.8 36 8.4 WSW 30 44 16 24 1007.4 1006.2 0.0
24/02:30pm 22.9 17.0 7.6 37 8.1 WSW 28 39 15 21 1007.5 1006.3 0.0
24/02:00pm 22.8 17.4 8.0 38 7.9 W 26 37 14 20 1007.8 1006.6 0.0
24/01:30pm 22.7 17.4 8.6 40 7.6 WSW 26 39 14 21 1007.9 1006.7 0.0
24/01:00pm 21.8 16.3 7.6 40 7.5 WSW 26 39 14 21 1008.3 1007.1 0.0
24/12:30pm 21.9 16.5 8.2 41 7.3 WSW 26 41 14 22 1008.4 1007.2 0.0
24/12:00pm 21.3 16.6 9.1 45 6.6 WSW 24 35 13 19 1008.3 1007.1 0.0
24/11:30am 20.4 15.7 9.3 49 6.0 W 24 37 13 20 1008.6 1007.4 0.0
24/11:00am 20.2 15.2 9.5 50 5.8 W 26 37 14 20 1008.8 1007.6 0.0
24/10:30am 19.3 15.2 10.1 55 5.0 W 22 32 12 17 1009.1 1007.9 0.0
24/10:00am 18.1 14.0 11.6 66 3.6 WSW 24 33 13 18 1009.2 1008.0 0.0
24/09:30am 17.0 13.8 11.8 71 2.9 WSW 20 32 11 17 1009.3 1008.1 0.0
24/09:00am 16.8 14.3 12.3 75 2.5 W 17 22 9 12 1009.0 1007.8 0.0
24/08:30am 15.5 14.8 11.9 79 2.0 NNW 7 11 4 6 1009.2 1008.0 0.0
24/08:00am 13.8 12.9 11.4 85 1.3 N 7 11 4 6 1009.0 1007.8 0.0
24/07:30am 12.9 11.9 11.0 88 1.0 NNE 7 11 4 6 1009.0 1007.8 0.0
24/07:00am 12.0 11.0 10.9 93 0.6 NNE 7 9 4 5 1008.7 1007.5 0.0
24/06:30am 11.1 9.9 10.3 95 0.4 NE 7 9 4 5 1008.6 1007.4 0.0
24/06:00am 9.7 9.5 8.9 95 0.4 CALM 0 0 0 0 1008.7 1007.5 0.0
24/05:30am 9.9 8.4 9.3 96 0.3 E 7 7 4 4 1008.5 1007.3 0.0
24/05:00am 9.5 8.8 8.7 95 0.4 ENE 2 6 1 3 1008.8 1007.6 0.0
24/04:30am 10.8 9.7 10.0 95 0.4 NE 6 6 3 3 1008.7 1007.5 0.0
24/04:00am 11.2 10.0 10.4 95 0.4 N 7 9 4 5 1008.7 1007.5 0.0
24/03:30am 11.4 11.5 10.2 92 0.6 CALM 0 0 0 0 1008.8 1007.6 0.0
24/03:00am 11.7 11.9 10.4 92 0.7 CALM 0 0 0 0 1008.8 1007.6 0.0
24/02:30am 12.1 12.3 10.6 90 0.8 CALM 0 0 0 0 1009.1 1007.9 0.0
24/02:00am 13.3 13.0 11.3 88 1.1 E 4 7 2 4 1009.2 1008.0 0.0
24/01:30am 12.7 13.0 10.8 88 1.0 CALM 0 0 0 0 1009.3 1008.1 0.0
24/01:00am 13.3 12.5 11.1 86 1.2 SSE 6 7 3 4 1009.6 1008.4 0.0
24/12:30am 13.8 14.2 11.2 84 1.4 CALM 0 4 0 2 1009.8 1008.6 0.0
24/12:00am 14.3 14.3 11.1 81 1.7 SSE 2 7 1 4 1010.0 1008.8 0.0
 
Date/Time
CDT
Temp
°C
App
Temp
°C
Dew
Point
Rel
Hum
%
Delta-T
°C
Wind Press
QNH
hPa
Press
MSL
hPa
Rain
since 9 am
mm
Dir
 
Spd
km/h
Gust
km/h
Spd
kts
Gust
kts
23/11:30pm 15.1 14.3 11.0 76 2.2 SSE 6 13 3 7 1010.1 1009.0 0.0
23/11:00pm 15.7 13.5 10.9 73 2.6 SE 13 17 7 9 1010.1 1009.0 0.0
23/10:30pm 16.2 15.0 10.4 68 3.1 ESE 7 13 4 7 1009.9 1008.7 0.0
23/10:00pm 16.8 15.2 10.1 64 3.6 SE 9 17 5 9 1009.5 1008.3 0.0
23/09:30pm 17.7 16.1 10.3 62 4.0 SE 9 15 5 8 1009.7 1008.5 0.0
23/09:00pm 18.9 17.7 10.3 57 4.7 ESE 7 11 4 6 1009.6 1008.4 0.0
23/08:30pm 20.3 18.6 11.2 56 5.1 WSW 11 19 6 10 1009.0 1007.8 0.0
23/08:00pm 21.6 19.5 11.3 52 5.8 WSW 13 22 7 12 1008.8 1007.6 0.0
23/07:30pm 22.5 19.8 11.6 50 6.2 WSW 17 24 9 13 1008.5 1007.3 0.0
23/07:00pm 23.8 20.4 10.4 42 7.5 WSW 19 26 10 14 1008.3 1007.1 0.0
23/06:30pm 24.1 20.3 9.7 40 8.0 W 20 30 11 16 1008.1 1006.9 0.0
23/06:00pm 25.0 21.5 8.8 35 8.9 W 17 26 9 14 1008.0 1006.8 0.0
23/05:30pm 25.3 21.7 9.9 37 8.6 W 19 26 10 14 1008.1 1006.9 0.0
23/05:00pm 25.6 22.8 11.5 41 8.1 W 17 30 9 16 1008.4 1007.2 0.0
23/04:30pm 25.0 21.9 12.1 44 7.5 WSW 20 30 11 16 1008.5 1007.3 0.0
23/04:00pm 24.6 21.2 12.4 46 7.1 W 22 32 12 17 1008.6 1007.4 0.0
23/03:30pm 25.3 22.4 12.2 44 7.6 W 19 32 10 17 1008.8 1007.6 0.0
23/03:00pm 25.3 22.9 12.5 45 7.5 W 17 28 9 15 1008.8 1007.6 0.0
23/02:30pm 25.3 22.4 12.9 46 7.3 W 20 28 11 15 1008.9 1007.7 0.0
23/02:00pm 25.4 22.7 13.0 46 7.3 WSW 19 30 10 16 1009.1 1007.9 0.0
23/01:30pm 25.1 22.1 10.8 40 8.1 WSW 17 30 9 16 1009.3 1008.1 0.0
23/01:00pm 25.6 22.9 11.8 42 8.0 WSW 17 26 9 14 1009.4 1008.2 0.0
23/12:30pm 25.7 23.4 9.0 34 9.2 WSW 11 24 6 13 1009.4 1008.2 0.0
23/12:00pm 24.6 22.1 8.4 35 8.8 SW 11 19 6 10 1009.6 1008.4 0.0
23/11:30am 23.7 20.1 8.3 37 8.3 WSW 17 24 9 13 1009.9 1008.7 0.0
23/11:00am 23.2 20.0 8.3 38 8.0 SW 15 22 8 12 1010.0 1008.8 0.0
23/10:30am 22.7 19.4 8.1 39 7.8 WSW 15 24 8 13 1010.1 1009.0 0.0
23/10:00am 21.8 17.3 4.2 31 8.7 W 17 24 9 13 1010.1 1009.0 0.0
23/09:30am 20.9 16.9 3.0 30 8.6 WSW 13 19 7 10 1010.0 1008.8 0.0
23/09:00am 19.4 19.2 11.9 62 4.2 NNW 4 7 2 4 1009.8 1008.6 0.0
23/08:30am 18.7 17.6 11.9 64 3.8 WNW 9 13 5 7 1009.8 1008.6 0.0
23/08:00am 17.8 17.9 14.4 80 2.0 WSW 7 13 4 7 1009.8 1008.6 0.0
23/07:30am 17.3 17.4 14.4 83 1.7 W 7 11 4 6 1009.5 1008.3 0.0
23/07:00am 17.1 16.6 14.9 87 1.3 WSW 11 15 6 8 1009.4 1008.2 0.0
23/06:30am 17.0 16.5 15.0 88 1.2 WSW 11 17 6 9 1009.1 1007.9 0.0
23/06:00am 17.5 18.0 16.5 94 0.6 WSW 9 13 5 7 1008.3 1007.1 0.0
23/05:30am 17.7 18.3 16.9 95 0.5 WSW 9 17 5 9 1008.0 1006.8 0.0
23/05:00am 17.8 18.9 17.1 96 0.4 WSW 7 9 4 5 1007.6 1006.4 0.0
23/04:30am 17.7 18.8 17.0 96 0.4 SW 7 11 4 6 1007.7 1006.5 0.0
23/04:00am 17.6 18.0 16.4 93 0.7 SW 9 9 5 5 1007.7 1006.5 0.0
23/03:30am 18.2 18.8 16.7 91 0.9 WSW 9 13 5 7 1007.7 1006.5 0.0
23/03:00am 18.9 19.8 16.6 86 1.4 WSW 7 11 4 6 1007.8 1006.6 0.0
23/02:30am 18.9 18.7 16.8 87 1.3 W 13 17 7 9 1007.8 1006.6 0.0
23/02:00am 19.5 19.8 17.1 86 1.5 W 11 15 6 8 1008.2 1007.0 0.0
23/01:30am 20.2 20.5 17.1 82 1.9 WSW 11 17 6 9 1008.5 1007.3 0.0
23/01:00am 20.9 20.1 15.2 70 3.4 WSW 13 19 7 10 1008.7 1007.5 0.0
23/12:30am 20.9 20.4 13.9 64 4.1 SW 9 15 5 8 1008.6 1007.4 0.0
23/12:00am 19.4 21.2 15.6 78 2.3 CALM 0 0 0 0 1008.5 1007.3 0.0
 
Date/Time
CDT
Temp
°C
App
Temp
°C
Dew
Point
Rel
Hum
%
Delta-T
°C
Wind Press
QNH
hPa
Press
MSL
hPa
Rain
since 9 am
mm
Dir
 
Spd
km/h
Gust
km/h
Spd
kts
Gust
kts
22/11:30pm 19.0 20.6 15.0 77 2.4 CALM 0 0 0 0 1008.4 1007.2 0.0
22/11:00pm 19.2 20.7 14.6 74 2.7 CALM 0 0 0 0 1008.5 1007.3 0.0

Other Formats:

Comma delimited format used in spreadsheet applications
http://www.bom.gov.au/fwo/IDS60801/IDS60801.94681.axf

JavaScript Object Notation format (JSON) in row-major order
http://www.bom.gov.au/fwo/IDS60801/IDS60801.94681.json